sensor_id;sensor_type;location;lat;lon;timestamp;pressure;altitude;pressure_sealevel;temperature;humidity
75188;BME280;63762;51.334;22.108;2023-06-26T00:03:43;101660.42;;;18.19;64.07
75188;BME280;63762;51.334;22.108;2023-06-26T00:13:50;101663.34;;;18.08;64.49
75188;BME280;63762;51.334;22.108;2023-06-26T00:23:57;101657.35;;;17.95;64.59
75188;BME280;63762;51.334;22.108;2023-06-26T00:34:04;101653.64;;;17.76;65.20
75188;BME280;63762;51.334;22.108;2023-06-26T00:44:11;101660.12;;;17.56;65.42
75188;BME280;63762;51.334;22.108;2023-06-26T00:54:19;101652.52;;;17.50;66.24
75188;BME280;63762;51.334;22.108;2023-06-26T01:04:26;101659.11;;;17.38;65.83
75188;BME280;63762;51.334;22.108;2023-06-26T01:14:34;101654.65;;;17.28;66.48
75188;BME280;63762;51.334;22.108;2023-06-26T01:24:53;101648.20;;;17.19;66.69
75188;BME280;63762;51.334;22.108;2023-06-26T01:34:52;101643.34;;;17.13;67.29
75188;BME280;63762;51.334;22.108;2023-06-26T01:44:55;101646.16;;;17.02;67.03
75188;BME280;63762;51.334;22.108;2023-06-26T02:05:17;101643.86;;;16.88;67.11
75188;BME280;63762;51.334;22.108;2023-06-26T02:15:18;101640.69;;;16.74;67.23
75188;BME280;63762;51.334;22.108;2023-06-26T02:25:23;101634.37;;;16.64;67.83
75188;BME280;63762;51.334;22.108;2023-06-26T02:35:30;101632.06;;;16.59;68.18
75188;BME280;63762;51.334;22.108;2023-06-26T02:45:37;101654.06;;;16.56;68.62
75188;BME280;63762;51.334;22.108;2023-06-26T02:55:44;101648.34;;;16.50;68.14
75188;BME280;63762;51.334;22.108;2023-06-26T03:05:51;101644.02;;;16.47;68.87
75188;BME280;63762;51.334;22.108;2023-06-26T03:15:58;101650.92;;;16.51;70.27
75188;BME280;63762;51.334;22.108;2023-06-26T03:26:05;101644.91;;;16.57;70.49
75188;BME280;63762;51.334;22.108;2023-06-26T03:36:14;101646.11;;;16.64;70.93
75188;BME280;63762;51.334;22.108;2023-06-26T03:46:19;101644.41;;;16.73;71.31
75188;BME280;63762;51.334;22.108;2023-06-26T03:56:27;101648.42;;;16.78;72.00
75188;BME280;63762;51.334;22.108;2023-06-26T04:06:34;101656.71;;;16.77;72.66
75188;BME280;63762;51.334;22.108;2023-06-26T04:16:41;101647.69;;;16.76;73.89
75188;BME280;63762;51.334;22.108;2023-06-26T04:26:48;101653.48;;;17.02;74.02
75188;BME280;63762;51.334;22.108;2023-06-26T04:36:55;101641.04;;;17.37;73.07
75188;BME280;63762;51.334;22.108;2023-06-26T04:47:02;101641.92;;;17.66;73.14
75188;BME280;63762;51.334;22.108;2023-06-26T04:57:09;101636.54;;;18.03;72.88
75188;BME280;63762;51.334;22.108;2023-06-26T05:07:16;101644.05;;;18.38;71.85
75188;BME280;63762;51.334;22.108;2023-06-26T05:17:24;101644.97;;;18.83;71.69
75188;BME280;63762;51.334;22.108;2023-06-26T05:27:31;101647.88;;;19.26;70.35
75188;BME280;63762;51.334;22.108;2023-06-26T05:37:38;101646.07;;;19.69;67.69
75188;BME280;63762;51.334;22.108;2023-06-26T05:47:45;101633.88;;;20.07;66.98
75188;BME280;63762;51.334;22.108;2023-06-26T05:57:52;101630.90;;;20.52;65.53
75188;BME280;63762;51.334;22.108;2023-06-26T06:07:59;101623.07;;;20.98;62.58
75188;BME280;63762;51.334;22.108;2023-06-26T06:18:06;101630.83;;;21.43;60.68
75188;BME280;63762;51.334;22.108;2023-06-26T06:28:14;101617.84;;;21.85;59.62
75188;BME280;63762;51.334;22.108;2023-06-26T06:38:20;101612.82;;;22.29;58.19
75188;BME280;63762;51.334;22.108;2023-06-26T06:48:28;101620.05;;;22.68;56.33
75188;BME280;63762;51.334;22.108;2023-06-26T06:58:35;101621.12;;;23.20;54.30
75188;BME280;63762;51.334;22.108;2023-06-26T07:08:42;101607.97;;;23.61;53.38
75188;BME280;63762;51.334;22.108;2023-06-26T07:18:49;101601.95;;;24.03;54.41
75188;BME280;63762;51.334;22.108;2023-06-26T07:28:56;101610.22;;;24.46;52.63
75188;BME280;63762;51.334;22.108;2023-06-26T07:39:03;101604.52;;;24.62;54.06
75188;BME280;63762;51.334;22.108;2023-06-26T07:49:11;101602.44;;;24.64;50.22
75188;BME280;63762;51.334;22.108;2023-06-26T07:59:17;101605.84;;;24.37;48.81
75188;BME280;63762;51.334;22.108;2023-06-26T08:09:28;101606.22;;;24.20;49.78
75188;BME280;63762;51.334;22.108;2023-06-26T08:19:32;101612.85;;;24.83;44.38
75188;BME280;63762;51.334;22.108;2023-06-26T08:29:39;101612.07;;;25.39;40.93
75188;BME280;63762;51.334;22.108;2023-06-26T08:39:46;101606.45;;;25.75;43.07
75188;BME280;63762;51.334;22.108;2023-06-26T09:00:06;101596.68;;;25.51;42.62
75188;BME280;63762;51.334;22.108;2023-06-26T09:10:09;101594.08;;;25.64;45.29
75188;BME280;63762;51.334;22.108;2023-06-26T09:20:14;101582.55;;;26.37;39.26
75188;BME280;63762;51.334;22.108;2023-06-26T09:30:22;101583.19;;;26.80;40.53
75188;BME280;63762;51.334;22.108;2023-06-26T09:40:29;101564.46;;;27.35;39.72
75188;BME280;63762;51.334;22.108;2023-06-26T09:50:36;101551.95;;;27.85;35.66
75188;BME280;63762;51.334;22.108;2023-06-26T10:00:43;101558.12;;;28.00;35.27
75188;BME280;63762;51.334;22.108;2023-06-26T10:10:51;101550.19;;;28.23;36.80
75188;BME280;63762;51.334;22.108;2023-06-26T10:20:58;101549.96;;;28.25;34.15
75188;BME280;63762;51.334;22.108;2023-06-26T10:31:07;101547.23;;;28.05;35.10
75188;BME280;63762;51.334;22.108;2023-06-26T10:41:13;101542.09;;;28.15;34.98
75188;BME280;63762;51.334;22.108;2023-06-26T10:51:18;101539.16;;;27.77;37.46
75188;BME280;63762;51.334;22.108;2023-06-26T11:01:26;101538.72;;;27.48;38.29
75188;BME280;63762;51.334;22.108;2023-06-26T11:21:46;101516.48;;;28.39;34.71
75188;BME280;63762;51.334;22.108;2023-06-26T11:31:47;101505.41;;;28.83;35.79
75188;BME280;63762;51.334;22.108;2023-06-26T11:41:54;101488.05;;;29.07;34.31
75188;BME280;63762;51.334;22.108;2023-06-26T11:52:03;101478.05;;;29.31;33.35
75188;BME280;63762;51.334;22.108;2023-06-26T12:02:13;101485.11;;;29.51;32.19
75188;BME280;63762;51.334;22.108;2023-06-26T12:12:17;101457.99;;;29.78;31.26
75188;BME280;63762;51.334;22.108;2023-06-26T12:22:22;101454.84;;;29.92;28.91
75188;BME280;63762;51.334;22.108;2023-06-26T12:32:30;101453.36;;;29.72;31.20
75188;BME280;63762;51.334;22.108;2023-06-26T12:42:37;101444.56;;;29.32;28.45
75188;BME280;63762;51.334;22.108;2023-06-26T12:52:44;101438.45;;;28.93;29.92
75188;BME280;63762;51.334;22.108;2023-06-26T13:02:51;101428.82;;;28.95;31.48
75188;BME280;63762;51.334;22.108;2023-06-26T13:12:58;101416.36;;;29.11;30.66
75188;BME280;63762;51.334;22.108;2023-06-26T13:23:05;101414.88;;;29.33;30.25
75188;BME280;63762;51.334;22.108;2023-06-26T13:33:13;101403.96;;;29.62;30.61
75188;BME280;63762;51.334;22.108;2023-06-26T13:43:21;101386.54;;;29.91;29.30
75188;BME280;63762;51.334;22.108;2023-06-26T13:53:27;101371.87;;;30.02;29.29
75188;BME280;63762;51.334;22.108;2023-06-26T14:03:34;101361.52;;;30.09;27.18
75188;BME280;63762;51.334;22.108;2023-06-26T14:13:41;101356.94;;;30.03;29.12
75188;BME280;63762;51.334;22.108;2023-06-26T14:23:48;101338.55;;;29.48;29.56
75188;BME280;63762;51.334;22.108;2023-06-26T14:33:55;101327.61;;;29.17;30.17
75188;BME280;63762;51.334;22.108;2023-06-26T14:44:02;101325.93;;;29.16;30.40
75188;BME280;63762;51.334;22.108;2023-06-26T14:54:09;101313.13;;;29.51;30.38
75188;BME280;63762;51.334;22.108;2023-06-26T15:04:16;101303.90;;;29.57;30.05
75188;BME280;63762;51.334;22.108;2023-06-26T15:14:23;101297.11;;;29.35;31.01
75188;BME280;63762;51.334;22.108;2023-06-26T15:24:31;101284.62;;;29.08;31.34
75188;BME280;63762;51.334;22.108;2023-06-26T15:34:38;101284.89;;;29.00;31.95
75188;BME280;63762;51.334;22.108;2023-06-26T15:44:45;101272.16;;;29.17;31.39
75188;BME280;63762;51.334;22.108;2023-06-26T15:54:52;101264.45;;;29.19;31.66
75188;BME280;63762;51.334;22.108;2023-06-26T16:05:00;101248.14;;;29.29;31.12
75188;BME280;63762;51.334;22.108;2023-06-26T16:15:06;101238.60;;;29.61;32.02
75188;BME280;63762;51.334;22.108;2023-06-26T16:25:13;101237.80;;;29.72;31.81
75188;BME280;63762;51.334;22.108;2023-06-26T16:35:21;101236.35;;;29.70;32.44
75188;BME280;63762;51.334;22.108;2023-06-26T16:45:28;101236.96;;;29.36;32.15
75188;BME280;63762;51.334;22.108;2023-06-26T16:55:35;101233.81;;;28.47;34.73
75188;BME280;63762;51.334;22.108;2023-06-26T17:05:42;101232.19;;;28.08;36.48
75188;BME280;63762;51.334;22.108;2023-06-26T17:19:00;101231.98;;;27.66;38.30
75188;BME280;63762;51.334;22.108;2023-06-26T17:29:05;101230.52;;;27.63;38.56
75188;BME280;63762;51.334;22.108;2023-06-26T17:39:12;101238.82;;;27.57;41.07
75188;BME280;63762;51.334;22.108;2023-06-26T17:49:19;101235.51;;;27.42;42.54
75188;BME280;63762;51.334;22.108;2023-06-26T17:59:26;101242.79;;;27.17;42.36
75188;BME280;63762;51.334;22.108;2023-06-26T18:09:34;101236.70;;;26.89;43.71
75188;BME280;63762;51.334;22.108;2023-06-26T18:19:41;101237.13;;;26.60;46.23
75188;BME280;63762;51.334;22.108;2023-06-26T18:29:48;101239.03;;;26.33;46.67
75188;BME280;63762;51.334;22.108;2023-06-26T18:39:55;101232.63;;;26.00;47.30
75188;BME280;63762;51.334;22.108;2023-06-26T18:50:02;101238.02;;;25.67;47.78
75188;BME280;63762;51.334;22.108;2023-06-26T19:00:10;101231.55;;;25.34;48.17
75188;BME280;63762;51.334;22.108;2023-06-26T19:10:16;101239.03;;;25.06;49.01
75188;BME280;63762;51.334;22.108;2023-06-26T19:20:24;101238.41;;;24.77;49.44
75188;BME280;63762;51.334;22.108;2023-06-26T19:30:30;101230.95;;;24.50;49.89
75188;BME280;63762;51.334;22.108;2023-06-26T19:40:38;101225.90;;;24.26;50.92
75188;BME280;63762;51.334;22.108;2023-06-26T19:50:45;101218.27;;;24.00;51.81
75188;BME280;63762;51.334;22.108;2023-06-26T20:00:52;101206.30;;;23.72;51.16
75188;BME280;63762;51.334;22.108;2023-06-26T20:10:59;101223.41;;;23.53;52.46
75188;BME280;63762;51.334;22.108;2023-06-26T20:21:07;101197.23;;;23.36;53.66
75188;BME280;63762;51.334;22.108;2023-06-26T20:31:13;101192.31;;;23.17;54.04
75188;BME280;63762;51.334;22.108;2023-06-26T20:41:21;101171.62;;;23.00;54.42
75188;BME280;63762;51.334;22.108;2023-06-26T20:51:28;101167.45;;;22.89;54.17
75188;BME280;63762;51.334;22.108;2023-06-26T21:01:35;101159.49;;;22.80;54.76
75188;BME280;63762;51.334;22.108;2023-06-26T21:11:42;101159.69;;;22.64;55.26
75188;BME280;63762;51.334;22.108;2023-06-26T21:21:49;101141.35;;;22.50;54.90
75188;BME280;63762;51.334;22.108;2023-06-26T21:31:56;101145.17;;;22.41;54.76
75188;BME280;63762;51.334;22.108;2023-06-26T21:42:03;101149.64;;;22.27;54.53
75188;BME280;63762;51.334;22.108;2023-06-26T21:52:11;101149.81;;;22.26;54.83
75188;BME280;63762;51.334;22.108;2023-06-26T22:02:17;101153.67;;;22.17;55.34
75188;BME280;63762;51.334;22.108;2023-06-26T22:12:25;101164.52;;;22.10;56.09
75188;BME280;63762;51.334;22.108;2023-06-26T22:22:32;101166.85;;;21.98;56.48
75188;BME280;63762;51.334;22.108;2023-06-26T22:32:40;101148.12;;;21.87;56.33
75188;BME280;63762;51.334;22.108;2023-06-26T22:42:46;101129.36;;;21.76;56.47
75188;BME280;63762;51.334;22.108;2023-06-26T22:52:53;101133.48;;;21.72;57.11
75188;BME280;63762;51.334;22.108;2023-06-26T23:03:00;101131.66;;;21.65;57.04
75188;BME280;63762;51.334;22.108;2023-06-26T23:13:08;101122.29;;;21.59;57.22
75188;BME280;63762;51.334;22.108;2023-06-26T23:23:14;101111.46;;;21.43;57.68
75188;BME280;63762;51.334;22.108;2023-06-26T23:33:21;101092.02;;;21.38;58.00
75188;BME280;63762;51.334;22.108;2023-06-26T23:43:29;101070.47;;;21.35;57.63
75188;BME280;63762;51.334;22.108;2023-06-26T23:53:36;101072.66;;;21.40;58.35
